sensor_id;sensor_type;location;lat;lon;timestamp;P1;durP1;ratioP1;P2;durP2;ratioP2
16768;SDS011;14077;52.132;4.618;2023-04-24T00:02:02;1.30;;;0.60;;
16768;SDS011;14077;52.132;4.618;2023-04-24T00:04:29;0.17;;;0.13;;
16768;SDS011;14077;52.132;4.618;2023-04-24T00:06:56;0.60;;;0.53;;
16768;SDS011;14077;52.132;4.618;2023-04-24T00:09:25;0.33;;;0.27;;
16768;SDS011;14077;52.132;4.618;2023-04-24T00:11:52;4.07;;;0.70;;
16768;SDS011;14077;52.132;4.618;2023-04-24T00:14:18;0.70;;;0.40;;
16768;SDS011;14077;52.132;4.618;2023-04-24T00:16:45;0.67;;;0.20;;
16768;SDS011;14077;52.132;4.618;2023-04-24T00:19:11;1.90;;;0.77;;
16768;SDS011;14077;52.132;4.618;2023-04-24T00:21:38;0.20;;;0.20;;
16768;SDS011;14077;52.132;4.618;2023-04-24T00:24:04;0.70;;;0.33;;
16768;SDS011;14077;52.132;4.618;2023-04-24T00:26:30;0.87;;;0.47;;
16768;SDS011;14077;52.132;4.618;2023-04-24T00:28:58;1.07;;;0.50;;
16768;SDS011;14077;52.132;4.618;2023-04-24T00:31:24;0.40;;;0.30;;
16768;SDS011;14077;52.132;4.618;2023-04-24T00:33:50;0.10;;;0.10;;
16768;SDS011;14077;52.132;4.618;2023-04-24T00:36:17;1.10;;;0.50;;
16768;SDS011;14077;52.132;4.618;2023-04-24T00:38:44;0.63;;;0.50;;
16768;SDS011;14077;52.132;4.618;2023-04-24T00:41:11;2.10;;;0.70;;
16768;SDS011;14077;52.132;4.618;2023-04-24T00:43:37;2.07;;;0.60;;
16768;SDS011;14077;52.132;4.618;2023-04-24T00:46:05;0.10;;;0.10;;
16768;SDS011;14077;52.132;4.618;2023-04-24T00:48:31;0.10;;;0.10;;
16768;SDS011;14077;52.132;4.618;2023-04-24T00:50:57;0.83;;;0.27;;
16768;SDS011;14077;52.132;4.618;2023-04-24T00:53:24;0.93;;;0.17;;
16768;SDS011;14077;52.132;4.618;2023-04-24T00:55:50;1.27;;;0.43;;
16768;SDS011;14077;52.132;4.618;2023-04-24T00:58:16;0.10;;;0.10;;
16768;SDS011;14077;52.132;4.618;2023-04-24T01:00:43;0.47;;;0.20;;
16768;SDS011;14077;52.132;4.618;2023-04-24T01:03:11;0.83;;;0.50;;
16768;SDS011;14077;52.132;4.618;2023-04-24T01:05:39;0.33;;;0.33;;
16768;SDS011;14077;52.132;4.618;2023-04-24T01:08:05;1.43;;;0.63;;
16768;SDS011;14077;52.132;4.618;2023-04-24T01:10:32;2.87;;;1.20;;
16768;SDS011;14077;52.132;4.618;2023-04-24T01:12:59;0.20;;;0.20;;
16768;SDS011;14077;52.132;4.618;2023-04-24T01:15:25;1.50;;;0.50;;
16768;SDS011;14077;52.132;4.618;2023-04-24T01:17:51;0.20;;;0.20;;
16768;SDS011;14077;52.132;4.618;2023-04-24T01:20:19;2.10;;;0.43;;
16768;SDS011;14077;52.132;4.618;2023-04-24T01:22:47;0.10;;;0.10;;
16768;SDS011;14077;52.132;4.618;2023-04-24T01:25:13;0.10;;;0.10;;
16768;SDS011;14077;52.132;4.618;2023-04-24T01:27:39;0.47;;;0.20;;
16768;SDS011;14077;52.132;4.618;2023-04-24T01:30:06;0.53;;;0.37;;
16768;SDS011;14077;52.132;4.618;2023-04-24T01:32:33;0.10;;;0.10;;
16768;SDS011;14077;52.132;4.618;2023-04-24T01:35:00;0.10;;;0.10;;
16768;SDS011;14077;52.132;4.618;2023-04-24T01:37:26;0.10;;;0.10;;
16768;SDS011;14077;52.132;4.618;2023-04-24T01:39:54;0.10;;;0.10;;
16768;SDS011;14077;52.132;4.618;2023-04-24T01:42:21;0.40;;;0.20;;
16768;SDS011;14077;52.132;4.618;2023-04-24T01:44:47;0.10;;;0.10;;
16768;SDS011;14077;52.132;4.618;2023-04-24T01:47:14;0.10;;;0.10;;
16768;SDS011;14077;52.132;4.618;2023-04-24T01:49:40;0.10;;;0.10;;
16768;SDS011;14077;52.132;4.618;2023-04-24T01:52:06;0.13;;;0.10;;
16768;SDS011;14077;52.132;4.618;2023-04-24T01:54:32;0.10;;;0.10;;
16768;SDS011;14077;52.132;4.618;2023-04-24T01:57:00;0.60;;;0.20;;
16768;SDS011;14077;52.132;4.618;2023-04-24T01:59:27;0.20;;;0.20;;
16768;SDS011;14077;52.132;4.618;2023-04-24T02:01:53;0.10;;;0.10;;
16768;SDS011;14077;52.132;4.618;2023-04-24T02:04:20;0.20;;;0.20;;
16768;SDS011;14077;52.132;4.618;2023-04-24T02:06:46;2.93;;;0.40;;
16768;SDS011;14077;52.132;4.618;2023-04-24T02:09:12;0.20;;;0.10;;
16768;SDS011;14077;52.132;4.618;2023-04-24T02:11:39;0.23;;;0.20;;
16768;SDS011;14077;52.132;4.618;2023-04-24T02:14:06;0.10;;;0.10;;
16768;SDS011;14077;52.132;4.618;2023-04-24T02:16:32;0.10;;;0.10;;
16768;SDS011;14077;52.132;4.618;2023-04-24T02:19:00;0.20;;;0.20;;
16768;SDS011;14077;52.132;4.618;2023-04-24T02:21:27;0.20;;;0.20;;
16768;SDS011;14077;52.132;4.618;2023-04-24T02:23:53;0.10;;;0.10;;
16768;SDS011;14077;52.132;4.618;2023-04-24T02:26:20;0.10;;;0.10;;
16768;SDS011;14077;52.132;4.618;2023-04-24T02:28:46;1.07;;;0.30;;
16768;SDS011;14077;52.132;4.618;2023-04-24T02:31:13;0.10;;;0.10;;
16768;SDS011;14077;52.132;4.618;2023-04-24T02:33:40;0.10;;;0.10;;
16768;SDS011;14077;52.132;4.618;2023-04-24T02:36:06;0.10;;;0.10;;
16768;SDS011;14077;52.132;4.618;2023-04-24T02:38:32;0.23;;;0.23;;
16768;SDS011;14077;52.132;4.618;2023-04-24T02:40:59;0.43;;;0.37;;
16768;SDS011;14077;52.132;4.618;2023-04-24T02:43:25;0.10;;;0.10;;
16768;SDS011;14077;52.132;4.618;2023-04-24T02:45:52;0.10;;;0.10;;
16768;SDS011;14077;52.132;4.618;2023-04-24T02:48:19;0.10;;;0.10;;
16768;SDS011;14077;52.132;4.618;2023-04-24T02:50:46;0.10;;;0.10;;
16768;SDS011;14077;52.132;4.618;2023-04-24T02:53:12;0.10;;;0.10;;
16768;SDS011;14077;52.132;4.618;2023-04-24T02:55:39;0.10;;;0.10;;
16768;SDS011;14077;52.132;4.618;2023-04-24T02:58:05;0.20;;;0.20;;
16768;SDS011;14077;52.132;4.618;2023-04-24T03:00:31;0.10;;;0.10;;
16768;SDS011;14077;52.132;4.618;2023-04-24T03:02:58;0.20;;;0.20;;
16768;SDS011;14077;52.132;4.618;2023-04-24T03:05:26;0.20;;;0.20;;
16768;SDS011;14077;52.132;4.618;2023-04-24T03:07:52;0.10;;;0.10;;
16768;SDS011;14077;52.132;4.618;2023-04-24T03:10:19;0.13;;;0.13;;
16768;SDS011;14077;52.132;4.618;2023-04-24T03:12:47;0.10;;;0.10;;
16768;SDS011;14077;52.132;4.618;2023-04-24T03:15:13;0.10;;;0.10;;
16768;SDS011;14077;52.132;4.618;2023-04-24T03:17:40;0.10;;;0.10;;
16768;SDS011;14077;52.132;4.618;2023-04-24T03:20:06;0.40;;;0.40;;
16768;SDS011;14077;52.132;4.618;2023-04-24T03:22:35;0.10;;;0.10;;
16768;SDS011;14077;52.132;4.618;2023-04-24T03:25:01;0.10;;;0.10;;
16768;SDS011;14077;52.132;4.618;2023-04-24T03:27:27;0.10;;;0.10;;
16768;SDS011;14077;52.132;4.618;2023-04-24T03:29:54;0.27;;;0.27;;
16768;SDS011;14077;52.132;4.618;2023-04-24T03:32:21;0.10;;;0.10;;
16768;SDS011;14077;52.132;4.618;2023-04-24T03:34:47;0.10;;;0.10;;
16768;SDS011;14077;52.132;4.618;2023-04-24T03:37:14;0.07;;;0.07;;
16768;SDS011;14077;52.132;4.618;2023-04-24T03:39:41;0.10;;;0.10;;
16768;SDS011;14077;52.132;4.618;2023-04-24T03:42:08;0.20;;;0.20;;
16768;SDS011;14077;52.132;4.618;2023-04-24T03:44:34;0.10;;;0.10;;
16768;SDS011;14077;52.132;4.618;2023-04-24T03:47:01;0.10;;;0.10;;
16768;SDS011;14077;52.132;4.618;2023-04-24T03:49:27;0.10;;;0.10;;
16768;SDS011;14077;52.132;4.618;2023-04-24T03:51:54;0.10;;;0.10;;
16768;SDS011;14077;52.132;4.618;2023-04-24T03:54:20;0.10;;;0.10;;
16768;SDS011;14077;52.132;4.618;2023-04-24T03:56:47;0.47;;;0.23;;
16768;SDS011;14077;52.132;4.618;2023-04-24T03:59:14;0.17;;;0.17;;
16768;SDS011;14077;52.132;4.618;2023-04-24T04:01:40;0.10;;;0.10;;
16768;SDS011;14077;52.132;4.618;2023-04-24T04:04:06;0.83;;;0.57;;
16768;SDS011;14077;52.132;4.618;2023-04-24T04:06:33;0.10;;;0.10;;
16768;SDS011;14077;52.132;4.618;2023-04-24T04:09:01;0.50;;;0.33;;
16768;SDS011;14077;52.132;4.618;2023-04-24T04:11:28;0.10;;;0.10;;
16768;SDS011;14077;52.132;4.618;2023-04-24T04:13:56;0.10;;;0.10;;
16768;SDS011;14077;52.132;4.618;2023-04-24T04:16:22;0.10;;;0.10;;
16768;SDS011;14077;52.132;4.618;2023-04-24T04:18:49;0.10;;;0.10;;
16768;SDS011;14077;52.132;4.618;2023-04-24T04:21:15;0.87;;;0.40;;
16768;SDS011;14077;52.132;4.618;2023-04-24T04:23:42;0.10;;;0.10;;
16768;SDS011;14077;52.132;4.618;2023-04-24T04:26:08;0.10;;;0.10;;
16768;SDS011;14077;52.132;4.618;2023-04-24T04:28:34;0.10;;;0.10;;
16768;SDS011;14077;52.132;4.618;2023-04-24T04:31:02;0.10;;;0.10;;
16768;SDS011;14077;52.132;4.618;2023-04-24T04:33:28;0.10;;;0.10;;
16768;SDS011;14077;52.132;4.618;2023-04-24T04:35:55;0.10;;;0.10;;
16768;SDS011;14077;52.132;4.618;2023-04-24T04:38:22;0.10;;;0.10;;
16768;SDS011;14077;52.132;4.618;2023-04-24T04:40:48;1.07;;;0.30;;
16768;SDS011;14077;52.132;4.618;2023-04-24T04:43:15;0.40;;;0.17;;
16768;SDS011;14077;52.132;4.618;2023-04-24T04:45:41;0.10;;;0.10;;
16768;SDS011;14077;52.132;4.618;2023-04-24T04:48:09;2.47;;;0.70;;
16768;SDS011;14077;52.132;4.618;2023-04-24T04:50:38;1.13;;;0.57;;
16768;SDS011;14077;52.132;4.618;2023-04-24T04:53:04;3.67;;;1.23;;
16768;SDS011;14077;52.132;4.618;2023-04-24T04:55:31;3.33;;;1.33;;
16768;SDS011;14077;52.132;4.618;2023-04-24T04:57:58;2.43;;;1.50;;
16768;SDS011;14077;52.132;4.618;2023-04-24T05:00:25;5.10;;;1.90;;
16768;SDS011;14077;52.132;4.618;2023-04-24T05:02:52;28.83;;;1.93;;
16768;SDS011;14077;52.132;4.618;2023-04-24T05:05:19;5.27;;;1.87;;
16768;SDS011;14077;52.132;4.618;2023-04-24T05:07:46;5.83;;;1.50;;
16768;SDS011;14077;52.132;4.618;2023-04-24T05:10:12;7.20;;;2.50;;
16768;SDS011;14077;52.132;4.618;2023-04-24T05:12:38;2.33;;;1.40;;
16768;SDS011;14077;52.132;4.618;2023-04-24T05:15:05;8.93;;;1.80;;
16768;SDS011;14077;52.132;4.618;2023-04-24T05:17:31;8.13;;;2.87;;
16768;SDS011;14077;52.132;4.618;2023-04-24T05:19:58;4.60;;;2.27;;
16768;SDS011;14077;52.132;4.618;2023-04-24T05:22:25;6.10;;;2.57;;
16768;SDS011;14077;52.132;4.618;2023-04-24T05:24:51;4.60;;;2.13;;
16768;SDS011;14077;52.132;4.618;2023-04-24T05:27:18;16.37;;;4.20;;
16768;SDS011;14077;52.132;4.618;2023-04-24T05:29:44;17.10;;;3.10;;
16768;SDS011;14077;52.132;4.618;2023-04-24T05:32:11;6.20;;;2.13;;
16768;SDS011;14077;52.132;4.618;2023-04-24T05:34:37;15.00;;;4.57;;
16768;SDS011;14077;52.132;4.618;2023-04-24T05:37:03;19.60;;;5.10;;
16768;SDS011;14077;52.132;4.618;2023-04-24T05:39:34;11.40;;;3.73;;
16768;SDS011;14077;52.132;4.618;2023-04-24T05:42:01;9.73;;;2.97;;
16768;SDS011;14077;52.132;4.618;2023-04-24T05:44:28;11.23;;;3.90;;
16768;SDS011;14077;52.132;4.618;2023-04-24T05:46:54;5.30;;;2.40;;
16768;SDS011;14077;52.132;4.618;2023-04-24T05:49:21;17.37;;;5.17;;
16768;SDS011;14077;52.132;4.618;2023-04-24T05:51:48;3.03;;;1.43;;
16768;SDS011;14077;52.132;4.618;2023-04-24T05:54:14;11.53;;;3.20;;
16768;SDS011;14077;52.132;4.618;2023-04-24T05:56:41;7.10;;;1.97;;
16768;SDS011;14077;52.132;4.618;2023-04-24T05:59:08;9.70;;;3.67;;
16768;SDS011;14077;52.132;4.618;2023-04-24T06:01:34;12.27;;;3.53;;
16768;SDS011;14077;52.132;4.618;2023-04-24T06:04:01;1.83;;;1.20;;
16768;SDS011;14077;52.132;4.618;2023-04-24T06:06:27;5.90;;;1.60;;
16768;SDS011;14077;52.132;4.618;2023-04-24T06:08:53;2.93;;;1.40;;
16768;SDS011;14077;52.132;4.618;2023-04-24T06:11:20;6.87;;;1.83;;
16768;SDS011;14077;52.132;4.618;2023-04-24T06:13:48;3.80;;;1.83;;
16768;SDS011;14077;52.132;4.618;2023-04-24T06:16:15;5.97;;;2.47;;
16768;SDS011;14077;52.132;4.618;2023-04-24T06:18:41;5.40;;;2.17;;
16768;SDS011;14077;52.132;4.618;2023-04-24T06:21:08;2.97;;;1.67;;
16768;SDS011;14077;52.132;4.618;2023-04-24T06:23:34;10.53;;;1.63;;
16768;SDS011;14077;52.132;4.618;2023-04-24T06:26:00;12.30;;;1.93;;
16768;SDS011;14077;52.132;4.618;2023-04-24T06:28:26;5.60;;;1.43;;
16768;SDS011;14077;52.132;4.618;2023-04-24T06:30:54;3.43;;;0.70;;
16768;SDS011;14077;52.132;4.618;2023-04-24T06:33:20;12.50;;;2.27;;
16768;SDS011;14077;52.132;4.618;2023-04-24T06:35:47;6.27;;;1.97;;
16768;SDS011;14077;52.132;4.618;2023-04-24T06:38:13;8.33;;;1.83;;
16768;SDS011;14077;52.132;4.618;2023-04-24T06:40:41;16.17;;;2.07;;
16768;SDS011;14077;52.132;4.618;2023-04-24T06:43:07;2.00;;;0.53;;
16768;SDS011;14077;52.132;4.618;2023-04-24T06:45:33;13.20;;;2.33;;
16768;SDS011;14077;52.132;4.618;2023-04-24T06:48:01;6.27;;;2.37;;
16768;SDS011;14077;52.132;4.618;2023-04-24T06:50:27;5.03;;;1.63;;
16768;SDS011;14077;52.132;4.618;2023-04-24T06:52:54;3.80;;;1.30;;
16768;SDS011;14077;52.132;4.618;2023-04-24T06:55:20;2.10;;;1.17;;
16768;SDS011;14077;52.132;4.618;2023-04-24T06:57:46;2.40;;;0.90;;
16768;SDS011;14077;52.132;4.618;2023-04-24T07:00:13;13.80;;;2.00;;
16768;SDS011;14077;52.132;4.618;2023-04-24T07:02:39;5.80;;;1.60;;
16768;SDS011;14077;52.132;4.618;2023-04-24T07:05:07;6.73;;;1.57;;
16768;SDS011;14077;52.132;4.618;2023-04-24T07:07:33;7.13;;;1.53;;
16768;SDS011;14077;52.132;4.618;2023-04-24T07:10:02;10.97;;;1.10;;
16768;SDS011;14077;52.132;4.618;2023-04-24T07:12:29;3.70;;;0.93;;
16768;SDS011;14077;52.132;4.618;2023-04-24T07:14:55;5.30;;;1.10;;
16768;SDS011;14077;52.132;4.618;2023-04-24T07:17:21;2.10;;;0.63;;
16768;SDS011;14077;52.132;4.618;2023-04-24T07:19:47;9.63;;;2.23;;
16768;SDS011;14077;52.132;4.618;2023-04-24T07:22:15;7.77;;;1.53;;
16768;SDS011;14077;52.132;4.618;2023-04-24T07:24:42;15.00;;;3.27;;
16768;SDS011;14077;52.132;4.618;2023-04-24T07:27:08;12.17;;;1.33;;
16768;SDS011;14077;52.132;4.618;2023-04-24T07:29:34;1.80;;;0.73;;
16768;SDS011;14077;52.132;4.618;2023-04-24T07:32:00;0.80;;;0.50;;
16768;SDS011;14077;52.132;4.618;2023-04-24T07:34:27;5.80;;;1.13;;
16768;SDS011;14077;52.132;4.618;2023-04-24T07:36:53;1.83;;;1.17;;
16768;SDS011;14077;52.132;4.618;2023-04-24T07:39:21;1.20;;;0.83;;
16768;SDS011;14077;52.132;4.618;2023-04-24T07:41:47;0.60;;;0.53;;
16768;SDS011;14077;52.132;4.618;2023-04-24T07:44:13;0.50;;;0.37;;
16768;SDS011;14077;52.132;4.618;2023-04-24T07:46:40;3.33;;;1.07;;
16768;SDS011;14077;52.132;4.618;2023-04-24T07:49:06;1.63;;;1.07;;
16768;SDS011;14077;52.132;4.618;2023-04-24T07:51:32;8.23;;;1.00;;
16768;SDS011;14077;52.132;4.618;2023-04-24T07:54:03;4.53;;;0.90;;
16768;SDS011;14077;52.132;4.618;2023-04-24T07:56:31;1.10;;;0.50;;
16768;SDS011;14077;52.132;4.618;2023-04-24T07:58:57;0.60;;;0.50;;
16768;SDS011;14077;52.132;4.618;2023-04-24T08:01:23;0.87;;;0.50;;
16768;SDS011;14077;52.132;4.618;2023-04-24T08:03:50;26.97;;;0.93;;
16768;SDS011;14077;52.132;4.618;2023-04-24T08:06:16;0.77;;;0.47;;
16768;SDS011;14077;52.132;4.618;2023-04-24T08:08:42;8.40;;;1.53;;
16768;SDS011;14077;52.132;4.618;2023-04-24T08:11:09;1.80;;;0.83;;
16768;SDS011;14077;52.132;4.618;2023-04-24T08:13:36;12.33;;;1.53;;
16768;SDS011;14077;52.132;4.618;2023-04-24T08:16:03;4.90;;;0.63;;
16768;SDS011;14077;52.132;4.618;2023-04-24T08:18:29;0.60;;;0.60;;
16768;SDS011;14077;52.132;4.618;2023-04-24T08:20:55;0.30;;;0.30;;
16768;SDS011;14077;52.132;4.618;2023-04-24T08:23:26;0.20;;;0.20;;
16768;SDS011;14077;52.132;4.618;2023-04-24T08:25:52;3.70;;;1.23;;
16768;SDS011;14077;52.132;4.618;2023-04-24T08:28:18;0.20;;;0.20;;
16768;SDS011;14077;52.132;4.618;2023-04-24T08:30:46;1.20;;;0.57;;
16768;SDS011;14077;52.132;4.618;2023-04-24T08:33:13;0.10;;;0.10;;
16768;SDS011;14077;52.132;4.618;2023-04-24T08:35:39;0.57;;;0.53;;
16768;SDS011;14077;52.132;4.618;2023-04-24T08:38:05;0.93;;;0.60;;
16768;SDS011;14077;52.132;4.618;2023-04-24T08:40:33;1.67;;;0.77;;
16768;SDS011;14077;52.132;4.618;2023-04-24T08:43:00;0.50;;;0.40;;
16768;SDS011;14077;52.132;4.618;2023-04-24T08:45:26;0.53;;;0.47;;
16768;SDS011;14077;52.132;4.618;2023-04-24T08:47:54;0.73;;;0.50;;
16768;SDS011;14077;52.132;4.618;2023-04-24T08:50:20;15.03;;;1.77;;
16768;SDS011;14077;52.132;4.618;2023-04-24T08:52:47;0.67;;;0.60;;
16768;SDS011;14077;52.132;4.618;2023-04-24T08:55:15;0.33;;;0.33;;
16768;SDS011;14077;52.132;4.618;2023-04-24T08:57:43;0.73;;;0.53;;
16768;SDS011;14077;52.132;4.618;2023-04-24T09:00:10;0.73;;;0.27;;
16768;SDS011;14077;52.132;4.618;2023-04-24T09:02:38;0.40;;;0.33;;
16768;SDS011;14077;52.132;4.618;2023-04-24T09:05:06;0.20;;;0.20;;
16768;SDS011;14077;52.132;4.618;2023-04-24T09:07:34;0.10;;;0.10;;
16768;SDS011;14077;52.132;4.618;2023-04-24T09:10:01;2.07;;;0.20;;
16768;SDS011;14077;52.132;4.618;2023-04-24T09:12:27;1.93;;;1.07;;
16768;SDS011;14077;52.132;4.618;2023-04-24T09:14:54;0.10;;;0.10;;
16768;SDS011;14077;52.132;4.618;2023-04-24T09:17:20;1.60;;;0.50;;
16768;SDS011;14077;52.132;4.618;2023-04-24T09:19:47;0.63;;;0.43;;
16768;SDS011;14077;52.132;4.618;2023-04-24T09:22:15;3.20;;;0.60;;
16768;SDS011;14077;52.132;4.618;2023-04-24T09:24:41;2.03;;;0.87;;
16768;SDS011;14077;52.132;4.618;2023-04-24T09:27:07;0.83;;;0.20;;
16768;SDS011;14077;52.132;4.618;2023-04-24T09:29:37;0.10;;;0.10;;
16768;SDS011;14077;52.132;4.618;2023-04-24T09:32:17;0.30;;;0.20;;
16768;SDS011;14077;52.132;4.618;2023-04-24T09:34:43;1.03;;;0.40;;
16768;SDS011;14077;52.132;4.618;2023-04-24T09:37:16;0.30;;;0.20;;
16768;SDS011;14077;52.132;4.618;2023-04-24T09:40:06;2.63;;;0.40;;
16768;SDS011;14077;52.132;4.618;2023-04-24T09:42:33;0.10;;;0.10;;
16768;SDS011;14077;52.132;4.618;2023-04-24T09:44:59;0.10;;;0.10;;
16768;SDS011;14077;52.132;4.618;2023-04-24T09:47:25;3.60;;;0.60;;
16768;SDS011;14077;52.132;4.618;2023-04-24T09:49:53;0.10;;;0.10;;
16768;SDS011;14077;52.132;4.618;2023-04-24T09:52:24;4.23;;;0.83;;
16768;SDS011;14077;52.132;4.618;2023-04-24T09:54:52;2.50;;;0.43;;
16768;SDS011;14077;52.132;4.618;2023-04-24T09:57:18;0.10;;;0.10;;
16768;SDS011;14077;52.132;4.618;2023-04-24T09:59:45;0.20;;;0.20;;
16768;SDS011;14077;52.132;4.618;2023-04-24T10:02:16;0.63;;;0.27;;
16768;SDS011;14077;52.132;4.618;2023-04-24T10:04:53;0.10;;;0.10;;
16768;SDS011;14077;52.132;4.618;2023-04-24T10:07:19;10.80;;;5.83;;
16768;SDS011;14077;52.132;4.618;2023-04-24T10:09:47;0.10;;;0.10;;
16768;SDS011;14077;52.132;4.618;2023-04-24T10:12:13;0.43;;;0.20;;
16768;SDS011;14077;52.132;4.618;2023-04-24T10:14:40;1.83;;;0.37;;
16768;SDS011;14077;52.132;4.618;2023-04-24T10:17:06;0.10;;;0.10;;
16768;SDS011;14077;52.132;4.618;2023-04-24T10:19:32;1.20;;;0.17;;
16768;SDS011;14077;52.132;4.618;2023-04-24T10:22:00;3.00;;;0.43;;
16768;SDS011;14077;52.132;4.618;2023-04-24T10:24:27;0.27;;;0.17;;
16768;SDS011;14077;52.132;4.618;2023-04-24T10:26:55;8.70;;;0.43;;
16768;SDS011;14077;52.132;4.618;2023-04-24T10:29:23;5.33;;;0.40;;
16768;SDS011;14077;52.132;4.618;2023-04-24T10:31:49;0.10;;;0.10;;
16768;SDS011;14077;52.132;4.618;2023-04-24T10:34:16;0.63;;;0.20;;
16768;SDS011;14077;52.132;4.618;2023-04-24T10:36:46;2.17;;;0.63;;
16768;SDS011;14077;52.132;4.618;2023-04-24T10:39:14;2.33;;;0.50;;
16768;SDS011;14077;52.132;4.618;2023-04-24T10:41:40;2.37;;;0.50;;
16768;SDS011;14077;52.132;4.618;2023-04-24T10:44:09;1.10;;;0.43;;
16768;SDS011;14077;52.132;4.618;2023-04-24T10:46:36;0.10;;;0.10;;
16768;SDS011;14077;52.132;4.618;2023-04-24T10:49:03;1.03;;;0.50;;
16768;SDS011;14077;52.132;4.618;2023-04-24T10:51:43;1.93;;;0.63;;
16768;SDS011;14077;52.132;4.618;2023-04-24T10:54:21;2.23;;;0.40;;
16768;SDS011;14077;52.132;4.618;2023-04-24T10:56:47;1.47;;;0.37;;
16768;SDS011;14077;52.132;4.618;2023-04-24T10:59:20;0.90;;;0.30;;
16768;SDS011;14077;52.132;4.618;2023-04-24T11:01:52;0.70;;;0.30;;
16768;SDS011;14077;52.132;4.618;2023-04-24T11:04:22;0.10;;;0.10;;
16768;SDS011;14077;52.132;4.618;2023-04-24T11:06:54;0.37;;;0.23;;
16768;SDS011;14077;52.132;4.618;2023-04-24T11:09:21;0.80;;;0.30;;
16768;SDS011;14077;52.132;4.618;2023-04-24T11:11:47;2.73;;;0.50;;
16768;SDS011;14077;52.132;4.618;2023-04-24T11:14:14;0.13;;;0.13;;
16768;SDS011;14077;52.132;4.618;2023-04-24T11:16:45;0.87;;;0.27;;
16768;SDS011;14077;52.132;4.618;2023-04-24T11:19:18;6.23;;;0.23;;
16768;SDS011;14077;52.132;4.618;2023-04-24T11:21:46;0.50;;;0.37;;
16768;SDS011;14077;52.132;4.618;2023-04-24T11:24:22;2.80;;;0.40;;
16768;SDS011;14077;52.132;4.618;2023-04-24T11:26:50;0.73;;;0.27;;
16768;SDS011;14077;52.132;4.618;2023-04-24T11:29:17;0.47;;;0.27;;
16768;SDS011;14077;52.132;4.618;2023-04-24T11:31:47;0.10;;;0.10;;
16768;SDS011;14077;52.132;4.618;2023-04-24T11:34:16;1.13;;;0.70;;
16768;SDS011;14077;52.132;4.618;2023-04-24T11:36:43;0.10;;;0.10;;
16768;SDS011;14077;52.132;4.618;2023-04-24T11:39:10;3.67;;;0.33;;
16768;SDS011;14077;52.132;4.618;2023-04-24T11:41:36;3.63;;;0.40;;
16768;SDS011;14077;52.132;4.618;2023-04-24T11:44:03;0.53;;;0.20;;
16768;SDS011;14077;52.132;4.618;2023-04-24T11:46:31;4.20;;;0.83;;
16768;SDS011;14077;52.132;4.618;2023-04-24T11:48:59;7.23;;;0.67;;
16768;SDS011;14077;52.132;4.618;2023-04-24T11:51:26;11.27;;;1.13;;
16768;SDS011;14077;52.132;4.618;2023-04-24T11:53:52;3.10;;;1.27;;
16768;SDS011;14077;52.132;4.618;2023-04-24T11:56:18;1.83;;;0.43;;
16768;SDS011;14077;52.132;4.618;2023-04-24T11:58:45;7.57;;;0.63;;
16768;SDS011;14077;52.132;4.618;2023-04-24T12:01:11;3.83;;;0.37;;
16768;SDS011;14077;52.132;4.618;2023-04-24T12:03:38;0.87;;;0.50;;
16768;SDS011;14077;52.132;4.618;2023-04-24T12:06:06;0.50;;;0.47;;
16768;SDS011;14077;52.132;4.618;2023-04-24T12:08:33;3.17;;;0.63;;
16768;SDS011;14077;52.132;4.618;2023-04-24T12:10:59;5.60;;;0.93;;
16768;SDS011;14077;52.132;4.618;2023-04-24T12:13:28;0.53;;;0.33;;
16768;SDS011;14077;52.132;4.618;2023-04-24T12:15:54;9.53;;;1.07;;
16768;SDS011;14077;52.132;4.618;2023-04-24T12:18:21;4.00;;;0.57;;
16768;SDS011;14077;52.132;4.618;2023-04-24T12:20:48;13.17;;;0.97;;
16768;SDS011;14077;52.132;4.618;2023-04-24T12:23:15;3.03;;;0.77;;
16768;SDS011;14077;52.132;4.618;2023-04-24T12:25:42;3.90;;;0.47;;
16768;SDS011;14077;52.132;4.618;2023-04-24T12:28:09;3.27;;;0.57;;
16768;SDS011;14077;52.132;4.618;2023-04-24T12:30:38;0.70;;;0.20;;
16768;SDS011;14077;52.132;4.618;2023-04-24T12:33:05;0.47;;;0.23;;
16768;SDS011;14077;52.132;4.618;2023-04-24T12:35:32;1.10;;;0.57;;
16768;SDS011;14077;52.132;4.618;2023-04-24T12:38:04;2.53;;;1.20;;
16768;SDS011;14077;52.132;4.618;2023-04-24T12:40:32;6.83;;;1.07;;
16768;SDS011;14077;52.132;4.618;2023-04-24T12:42:59;3.90;;;0.90;;
16768;SDS011;14077;52.132;4.618;2023-04-24T12:45:25;0.67;;;0.30;;
16768;SDS011;14077;52.132;4.618;2023-04-24T12:47:53;0.30;;;0.20;;
16768;SDS011;14077;52.132;4.618;2023-04-24T12:50:19;0.10;;;0.10;;
16768;SDS011;14077;52.132;4.618;2023-04-24T12:52:45;2.60;;;0.37;;
16768;SDS011;14077;52.132;4.618;2023-04-24T12:55:12;1.73;;;0.60;;
16768;SDS011;14077;52.132;4.618;2023-04-24T12:57:39;6.23;;;0.90;;
16768;SDS011;14077;52.132;4.618;2023-04-24T13:00:06;3.40;;;1.10;;
16768;SDS011;14077;52.132;4.618;2023-04-24T13:02:33;5.53;;;0.67;;
16768;SDS011;14077;52.132;4.618;2023-04-24T13:05:00;0.27;;;0.20;;
16768;SDS011;14077;52.132;4.618;2023-04-24T13:07:26;5.53;;;1.37;;
16768;SDS011;14077;52.132;4.618;2023-04-24T13:09:53;3.40;;;1.10;;
16768;SDS011;14077;52.132;4.618;2023-04-24T13:12:20;3.97;;;0.57;;
16768;SDS011;14077;52.132;4.618;2023-04-24T13:14:50;1.87;;;0.73;;
16768;SDS011;14077;52.132;4.618;2023-04-24T13:17:16;3.43;;;0.60;;
16768;SDS011;14077;52.132;4.618;2023-04-24T13:19:43;2.60;;;0.60;;
16768;SDS011;14077;52.132;4.618;2023-04-24T13:22:10;0.63;;;0.30;;
16768;SDS011;14077;52.132;4.618;2023-04-24T13:24:36;1.10;;;0.57;;
16768;SDS011;14077;52.132;4.618;2023-04-24T13:27:03;0.20;;;0.20;;
16768;SDS011;14077;52.132;4.618;2023-04-24T13:29:29;3.43;;;0.63;;
16768;SDS011;14077;52.132;4.618;2023-04-24T13:31:57;1.73;;;0.73;;
16768;SDS011;14077;52.132;4.618;2023-04-24T13:34:23;3.53;;;0.57;;
16768;SDS011;14077;52.132;4.618;2023-04-24T13:36:50;4.23;;;0.90;;
16768;SDS011;14077;52.132;4.618;2023-04-24T13:39:16;1.43;;;0.57;;
16768;SDS011;14077;52.132;4.618;2023-04-24T13:41:43;1.33;;;0.40;;
16768;SDS011;14077;52.132;4.618;2023-04-24T13:44:10;3.63;;;0.83;;
16768;SDS011;14077;52.132;4.618;2023-04-24T13:46:36;1.40;;;0.73;;
16768;SDS011;14077;52.132;4.618;2023-04-24T13:49:04;2.27;;;1.00;;
16768;SDS011;14077;52.132;4.618;2023-04-24T13:51:30;0.23;;;0.23;;
16768;SDS011;14077;52.132;4.618;2023-04-24T13:53:56;0.93;;;0.50;;
16768;SDS011;14077;52.132;4.618;2023-04-24T13:56:23;3.80;;;1.17;;
16768;SDS011;14077;52.132;4.618;2023-04-24T13:58:49;3.10;;;0.53;;
16768;SDS011;14077;52.132;4.618;2023-04-24T14:01:16;4.83;;;1.40;;
16768;SDS011;14077;52.132;4.618;2023-04-24T14:03:42;0.93;;;0.43;;
16768;SDS011;14077;52.132;4.618;2023-04-24T14:06:10;3.50;;;1.03;;
16768;SDS011;14077;52.132;4.618;2023-04-24T14:08:36;4.13;;;0.87;;
16768;SDS011;14077;52.132;4.618;2023-04-24T14:11:03;2.10;;;0.77;;
16768;SDS011;14077;52.132;4.618;2023-04-24T14:13:29;4.20;;;0.57;;
16768;SDS011;14077;52.132;4.618;2023-04-24T14:15:56;0.10;;;0.10;;
16768;SDS011;14077;52.132;4.618;2023-04-24T14:18:22;2.00;;;0.60;;
16768;SDS011;14077;52.132;4.618;2023-04-24T14:20:49;9.83;;;0.77;;
16768;SDS011;14077;52.132;4.618;2023-04-24T14:23:16;4.83;;;1.20;;
16768;SDS011;14077;52.132;4.618;2023-04-24T14:25:42;2.63;;;0.80;;
16768;SDS011;14077;52.132;4.618;2023-04-24T14:28:09;0.30;;;0.20;;
16768;SDS011;14077;52.132;4.618;2023-04-24T14:30:35;5.83;;;0.77;;
16768;SDS011;14077;52.132;4.618;2023-04-24T14:33:02;3.50;;;1.30;;
16768;SDS011;14077;52.132;4.618;2023-04-24T14:35:29;0.10;;;0.10;;
16768;SDS011;14077;52.132;4.618;2023-04-24T14:37:56;5.03;;;1.50;;
16768;SDS011;14077;52.132;4.618;2023-04-24T14:40:24;7.73;;;0.60;;
16768;SDS011;14077;52.132;4.618;2023-04-24T14:42:50;0.47;;;0.37;;
16768;SDS011;14077;52.132;4.618;2023-04-24T14:45:17;2.43;;;0.63;;
16768;SDS011;14077;52.132;4.618;2023-04-24T14:47:43;6.63;;;1.40;;